Time;durP1;ratioP1;P1;durP2;ratioP2;P2;SDS_P1;SDS_P2;PMS_P1;PMS_P2;Temp;Humidity;BMP_temperature;BMP_pressure;BME280_temperature;BME280_humidity;BME280_pressure;Samples;Min_cycle;Max_cycle;Signal;HPM_P1;HPM_P2
2023/09/04 00:00:00;;;;;;;7.13;6.22;;;;;;;;;;5073136;28;20040;-75
2023/09/04 00:02:47;;;;;;;6.30;5.70;;;;;;;;;;5073332;28;20036;-75
2023/09/04 00:05:33;;;;;;;7.90;5.90;;;;;;;;;;5079880;28;20045;-75
2023/09/04 00:08:18;;;;;;;9.65;5.72;;;;;;;;;;5073059;28;20393;-75
2023/09/04 00:11:04;;;;;;;9.43;6.07;;;;;;;;;;5073038;28;20044;-81
2023/09/04 00:13:50;;;;;;;8.18;5.97;;;;;;;;;;5072710;28;20045;-74
2023/09/04 00:16:35;;;;;;;7.93;6.72;;;;;;;;;;5079839;28;20040;-75
2023/09/04 00:19:21;;;;;;;9.20;6.60;;;;;;;;;;5073519;28;20044;-76
2023/09/04 00:22:06;;;;;;;9.30;7.45;;;;;;;;;;5076485;28;20040;-76
2023/09/04 00:24:52;;;;;;;8.93;7.40;;;;;;;;;;5077218;28;20397;-75
2023/09/04 00:27:37;;;;;;;13.73;8.25;;;;;;;;;;5076750;28;20040;-76
2023/09/04 00:30:24;;;;;;;9.07;8.10;;;;;;;;;;5076808;28;20049;-75
2023/09/04 00:33:09;;;;;;;9.00;7.93;;;;;;;;;;5076857;28;20048;-77
2023/09/04 00:35:54;;;;;;;13.20;8.10;;;;;;;;;;5068219;28;20111;-76
2023/09/04 00:38:40;;;;;;;11.07;8.30;;;;;;;;;;5076875;28;20056;-75
2023/09/04 00:41:25;;;;;;;9.43;8.30;;;;;;;;;;5061549;28;20040;-76
2023/09/04 00:44:10;;;;;;;9.82;7.80;;;;;;;;;;5068517;28;20045;-76
2023/09/04 00:46:57;;;;;;;11.00;8.02;;;;;;;;;;5076297;28;20045;-76
2023/09/04 00:49:43;;;;;;;9.45;8.32;;;;;;;;;;5076422;28;20390;-77
2023/09/04 00:52:29;;;;;;;9.55;8.57;;;;;;;;;;5068757;28;20044;-76
2023/09/04 00:55:14;;;;;;;10.27;8.80;;;;;;;;;;5068725;28;20045;-76
2023/09/04 00:58:00;;;;;;;10.57;8.40;;;;;;;;;;5076740;28;20045;-76
2023/09/04 01:00:46;;;;;;;12.55;8.88;;;;;;;;;;5068328;28;20044;-77
2023/09/04 01:03:32;;;;;;;10.57;9.23;;;;;;;;;;5067967;28;20048;-77
2023/09/04 01:06:19;;;;;;;10.20;9.00;;;;;;;;;;5077006;28;20044;-77
2023/09/04 01:09:05;;;;;;;13.20;9.85;;;;;;;;;;5076101;28;20477;-76
2023/09/04 01:12:06;;;;;;;10.93;9.85;;;;;;;;;;5075710;28;20045;-77
2023/09/04 01:14:55;;;;;;;10.77;9.60;;;;;;;;;;5067672;28;20643;-76
2023/09/04 01:17:43;;;;;;;13.02;9.70;;;;;;;;;;5082663;28;20048;-74
2023/09/04 01:20:30;;;;;;;12.10;10.85;;;;;;;;;;5082566;28;20048;-76
2023/09/04 01:23:16;;;;;;;13.02;11.25;;;;;;;;;;5067095;28;20135;-75
2023/09/04 01:26:14;;;;;;;14.10;11.63;;;;;;;;;;5053254;28;20040;-74
2023/09/04 01:29:33;;;;;;;13.23;11.57;;;;;;;;;;5067385;28;20041;-75
2023/09/04 01:32:36;;;;;;;17.48;11.77;;;;;;;;;;5074913;28;20045;-75
2023/09/04 01:35:22;;;;;;;12.23;11.02;;;;;;;;;;5075629;28;20048;-75
2023/09/04 01:38:08;;;;;;;13.80;11.60;;;;;;;;;;5075421;28;20037;-75
2023/09/04 01:40:54;;;;;;;13.13;11.73;;;;;;;;;;5067432;28;20045;-74
2023/09/04 01:43:39;;;;;;;13.27;11.88;;;;;;;;;;5080908;28;20041;-75
2023/09/04 01:46:25;;;;;;;15.88;12.50;;;;;;;;;;5075218;28;20044;-74
2023/09/04 01:49:10;;;;;;;14.30;12.32;;;;;;;;;;5066752;28;20045;-74
2023/09/04 01:51:58;;;;;;;13.85;12.45;;;;;;;;;;5066939;28;20048;-74
2023/09/04 01:54:43;;;;;;;13.65;12.25;;;;;;;;;;5075493;28;20041;-74
2023/09/04 01:57:29;;;;;;;16.38;13.18;;;;;;;;;;5060467;28;20040;-75
2023/09/04 02:00:14;;;;;;;17.55;12.55;;;;;;;;;;5066489;28;20040;-74
2023/09/04 02:03:02;;;;;;;15.77;13.30;;;;;;;;;;5074746;28;20045;-75
2023/09/04 02:05:49;;;;;;;14.38;13.00;;;;;;;;;;5074878;28;20405;-75
2023/09/04 02:08:36;;;;;;;15.15;13.40;;;;;;;;;;5075349;28;20049;-75
2023/09/04 02:11:23;;;;;;;15.05;12.48;;;;;;;;;;5075338;28;20386;-74
2023/09/04 02:14:08;;;;;;;15.05;12.80;;;;;;;;;;5060026;28;20139;-75
2023/09/04 02:16:55;;;;;;;14.15;12.68;;;;;;;;;;5066812;28;20052;-75
2023/09/04 02:19:41;;;;;;;14.98;13.07;;;;;;;;;;5066441;28;20037;-74
2023/09/04 02:22:28;;;;;;;15.35;13.77;;;;;;;;;;5075030;28;20040;-74
2023/09/04 02:25:14;;;;;;;15.45;13.45;;;;;;;;;;5066204;28;20049;-74
2023/09/04 02:27:59;;;;;;;17.30;13.88;;;;;;;;;;5074408;28;20505;-74
2023/09/04 02:30:45;;;;;;;16.08;13.75;;;;;;;;;;5060140;28;20485;-74
2023/09/04 02:33:31;;;;;;;14.40;12.90;;;;;;;;;;5074768;28;20052;-74
2023/09/04 02:36:18;;;;;;;15.25;13.25;;;;;;;;;;5065967;28;20041;-74
2023/09/04 02:39:04;;;;;;;14.80;12.88;;;;;;;;;;5074066;28;20044;-74
2023/09/04 02:41:50;;;;;;;14.00;12.52;;;;;;;;;;5079930;28;20036;-74
2023/09/04 02:44:36;;;;;;;17.15;13.45;;;;;;;;;;5065428;28;20048;-74
2023/09/04 02:47:21;;;;;;;15.05;12.98;;;;;;;;;;5074026;28;20056;-75
2023/09/04 02:50:08;;;;;;;18.85;13.57;;;;;;;;;;5073891;28;20036;-75
2023/09/04 02:52:54;;;;;;;16.38;13.48;;;;;;;;;;5074100;28;20041;-75
2023/09/04 02:55:39;;;;;;;17.58;13.55;;;;;;;;;;5073918;28;20049;-75
2023/09/04 02:58:25;;;;;;;15.13;13.25;;;;;;;;;;5073797;28;20048;-75
2023/09/04 03:01:14;;;;;;;19.15;13.95;;;;;;;;;;5065644;28;20048;-75
2023/09/04 03:03:59;;;;;;;15.32;13.45;;;;;;;;;;5073450;28;20048;-74
2023/09/04 03:06:44;;;;;;;15.30;13.70;;;;;;;;;;5065458;28;20390;-75
2023/09/04 03:09:31;;;;;;;15.30;13.18;;;;;;;;;;5065266;28;20041;-75
2023/09/04 03:12:17;;;;;;;14.88;13.15;;;;;;;;;;5064728;28;20036;-74
2023/09/04 03:15:06;;;;;;;16.05;13.07;;;;;;;;;;5065060;28;20045;-75
2023/09/04 03:17:53;;;;;;;15.15;13.52;;;;;;;;;;5079667;28;20040;-75
2023/09/04 03:20:39;;;;;;;21.90;13.15;;;;;;;;;;5065488;28;20032;-75
2023/09/04 03:23:24;;;;;;;14.88;13.25;;;;;;;;;;5073609;28;20041;-75
2023/09/04 03:26:10;;;;;;;15.05;12.63;;;;;;;;;;5073528;28;20036;-75
2023/09/04 03:28:56;;;;;;;21.52;13.90;;;;;;;;;;5065260;28;20049;-75
2023/09/04 03:31:41;;;;;;;11.80;10.60;;;;;;;;;;5064847;28;20044;-75
2023/09/04 03:34:29;;;;;;;12.38;10.00;;;;;;;;;;5065314;28;20052;-75
2023/09/04 03:37:14;;;;;;;9.02;8.13;;;;;;;;;;5064963;28;20040;-75
2023/09/04 03:40:20;;;;;;;8.25;7.38;;;;;;;;;;5073108;28;20044;-75
2023/09/04 03:43:05;;;;;;;7.93;6.10;;;;;;;;;;5078995;28;20060;-75
2023/09/04 03:45:50;;;;;;;7.85;5.80;;;;;;;;;;5073623;28;20041;-75
2023/09/04 03:48:35;;;;;;;7.07;5.35;;;;;;;;;;5064850;28;20048;-75
2023/09/04 03:51:21;;;;;;;7.40;5.63;;;;;;;;;;5073506;28;20036;-75
2023/09/04 03:54:06;;;;;;;6.03;4.90;;;;;;;;;;5064909;28;20041;-75
2023/09/04 03:56:51;;;;;;;8.07;5.00;;;;;;;;;;5069097;28;20036;-75
2023/09/04 03:59:36;;;;;;;7.38;5.22;;;;;;;;;;5077396;28;20044;-75
2023/09/04 04:02:22;;;;;;;7.03;4.50;;;;;;;;;;5077721;28;20040;-74
2023/09/04 04:05:10;;;;;;;9.50;5.10;;;;;;;;;;5068480;28;20044;-75
2023/09/04 04:07:55;;;;;;;6.80;4.93;;;;;;;;;;5077266;28;20044;-75
2023/09/04 04:10:41;;;;;;;6.18;4.95;;;;;;;;;;5077326;28;20048;-75
2023/09/04 04:13:26;;;;;;;8.93;5.60;;;;;;;;;;5078997;28;20048;-75
2023/09/04 04:16:12;;;;;;;5.65;5.05;;;;;;;;;;5077378;28;20413;-75
2023/09/04 04:18:57;;;;;;;9.68;5.05;;;;;;;;;;5068670;28;20041;-74
2023/09/04 04:21:42;;;;;;;5.75;4.85;;;;;;;;;;5068687;28;20044;-74
2023/09/04 04:24:31;;;;;;;9.57;4.50;;;;;;;;;;5076300;28;20048;-74
2023/09/04 04:27:17;;;;;;;6.25;5.20;;;;;;;;;;5076305;28;20037;-73
2023/09/04 04:30:02;;;;;;;6.63;4.13;;;;;;;;;;5068002;28;20048;-73
2023/09/04 04:32:50;;;;;;;7.10;4.53;;;;;;;;;;5067838;28;20048;-73
2023/09/04 04:35:36;;;;;;;5.47;4.30;;;;;;;;;;5068175;28;20041;-74
2023/09/04 04:38:21;;;;;;;7.32;5.10;;;;;;;;;;5068146;28;20056;-73
2023/09/04 04:41:07;;;;;;;6.07;4.55;;;;;;;;;;5082776;28;20044;-73
2023/09/04 04:43:53;;;;;;;8.20;4.53;;;;;;;;;;5068430;28;20037;-73
2023/09/04 04:46:40;;;;;;;7.53;5.50;;;;;;;;;;5068041;28;20044;-73
2023/09/04 04:49:27;;;;;;;6.35;5.22;;;;;;;;;;5068368;28;20048;-73
2023/09/04 04:52:12;;;;;;;9.02;5.22;;;;;;;;;;5069919;28;20048;-74
2023/09/04 04:54:58;;;;;;;7.00;5.68;;;;;;;;;;5078228;28;20044;-73
2023/09/04 04:57:44;;;;;;;5.25;4.72;;;;;;;;;;5076781;28;20048;-74
2023/09/04 05:00:29;;;;;;;5.72;4.93;;;;;;;;;;5082488;28;20048;-75
2023/09/04 05:03:15;;;;;;;8.73;6.38;;;;;;;;;;5075669;28;20045;-74
2023/09/04 05:06:02;;;;;;;14.52;8.80;;;;;;;;;;5066675;28;20044;-75
2023/09/04 05:08:47;;;;;;;11.93;9.50;;;;;;;;;;5067554;28;20037;-74
2023/09/04 05:11:33;;;;;;;5.57;4.65;;;;;;;;;;5066910;28;20044;-74
2023/09/04 05:14:19;;;;;;;10.27;7.20;;;;;;;;;;5061028;28;20045;-74
2023/09/04 05:17:05;;;;;;;10.15;6.82;;;;;;;;;;5076250;28;20049;-74
2023/09/04 05:19:50;;;;;;;11.68;9.23;;;;;;;;;;5066599;28;20044;-73
2023/09/04 05:22:35;;;;;;;10.55;7.13;;;;;;;;;;5067288;28;20045;-74
2023/09/04 05:25:22;;;;;;;7.35;4.38;;;;;;;;;;5075876;28;20044;-73
2023/09/04 05:28:07;;;;;;;6.68;4.60;;;;;;;;;;5067456;28;20048;-74
2023/09/04 05:30:53;;;;;;;6.82;4.90;;;;;;;;;;5075071;28;20045;-74
2023/09/04 05:33:38;;;;;;;6.70;4.00;;;;;;;;;;5075567;28;20056;-74
2023/09/04 05:36:24;;;;;;;5.35;4.10;;;;;;;;;;5075623;28;20474;-74
2023/09/04 05:39:10;;;;;;;7.50;3.80;;;;;;;;;;5082150;28;20036;-74
2023/09/04 05:41:55;;;;;;;5.82;3.95;;;;;;;;;;5075593;28;20036;-75
2023/09/04 05:44:41;;;;;;;6.13;3.60;;;;;;;;;;5075028;28;20490;-74
2023/09/04 05:47:26;;;;;;;6.53;3.85;;;;;;;;;;5075370;28;20048;-74
2023/09/04 05:50:13;;;;;;;3.65;2.97;;;;;;;;;;5073650;28;20056;-74
2023/09/04 05:52:59;;;;;;;4.85;3.10;;;;;;;;;;5075715;28;20048;-73
2023/09/04 05:56:11;;;;;;;6.57;3.58;;;;;;;;;;5074885;28;20044;-74
2023/09/04 05:58:56;;;;;;;5.03;3.53;;;;;;;;;;5074834;28;20048;-74
2023/09/04 06:01:41;;;;;;;5.53;3.15;;;;;;;;;;5075380;28;20032;-73
2023/09/04 06:04:27;;;;;;;6.07;4.03;;;;;;;;;;5074859;28;20044;-74
2023/09/04 06:07:15;;;;;;;9.43;4.10;;;;;;;;;;5075717;28;20044;-73
2023/09/04 06:10:00;;;;;;;6.22;3.58;;;;;;;;;;5081953;28;20040;-73
2023/09/04 06:12:46;;;;;;;4.47;3.28;;;;;;;;;;5078476;28;20044;-73
2023/09/04 06:15:31;;;;;;;7.07;4.20;;;;;;;;;;5074861;28;20048;-73
2023/09/04 06:18:19;;;;;;;7.78;3.92;;;;;;;;;;5074581;28;20041;-73
2023/09/04 06:21:05;;;;;;;5.70;4.07;;;;;;;;;;5074803;28;20489;-74
2023/09/04 06:23:50;;;;;;;5.63;4.35;;;;;;;;;;5074526;28;20044;-73
2023/09/04 06:26:35;;;;;;;5.32;4.43;;;;;;;;;;5074735;28;20044;-75
2023/09/04 06:29:21;;;;;;;5.45;4.30;;;;;;;;;;5081496;28;20044;-73
2023/09/04 06:32:07;;;;;;;6.47;4.57;;;;;;;;;;5081486;28;20045;-74
2023/09/04 06:34:52;;;;;;;8.88;4.07;;;;;;;;;;5074568;28;20513;-74
2023/09/04 06:37:38;;;;;;;12.30;5.13;;;;;;;;;;5074579;28;20390;-74
2023/09/04 06:40:23;;;;;;;5.40;4.60;;;;;;;;;;5074183;28;20147;-74
2023/09/04 06:43:08;;;;;;;5.40;4.03;;;;;;;;;;5080242;28;20490;-76
2023/09/04 06:45:54;;;;;;;6.63;4.43;;;;;;;;;;5079660;28;20490;-74
2023/09/04 06:48:40;;;;;;;7.25;4.40;;;;;;;;;;5074264;28;20059;-74
2023/09/04 06:51:25;;;;;;;4.70;3.80;;;;;;;;;;5074236;28;20049;-73
2023/09/04 06:54:10;;;;;;;6.97;4.05;;;;;;;;;;5073863;28;20052;-74
2023/09/04 06:56:56;;;;;;;7.07;3.60;;;;;;;;;;5080897;28;20036;-74
2023/09/04 06:59:41;;;;;;;7.38;4.07;;;;;;;;;;5080795;28;20040;-75
2023/09/04 07:02:27;;;;;;;5.45;4.28;;;;;;;;;;5080811;28;20040;-74
2023/09/04 07:05:13;;;;;;;5.45;4.15;;;;;;;;;;5073789;28;20382;-74
2023/09/04 07:07:58;;;;;;;6.63;3.90;;;;;;;;;;5065650;28;20036;-75
2023/09/04 07:10:44;;;;;;;11.40;4.97;;;;;;;;;;5073750;28;20041;-73
2023/09/04 07:13:29;;;;;;;4.78;4.00;;;;;;;;;;5076309;28;20044;-74
2023/09/04 07:16:15;;;;;;;6.18;4.05;;;;;;;;;;5080776;28;20044;-74
2023/09/04 07:19:01;;;;;;;7.40;4.25;;;;;;;;;;5073595;28;20044;-74
2023/09/04 07:21:46;;;;;;;7.05;4.80;;;;;;;;;;5073894;28;20063;-73
2023/09/04 07:24:32;;;;;;;5.68;5.05;;;;;;;;;;5073258;28;20486;-74
2023/09/04 07:27:17;;;;;;;6.55;5.60;;;;;;;;;;5080451;28;20037;-74
2023/09/04 07:30:03;;;;;;;5.93;5.30;;;;;;;;;;5073108;28;20053;-73
2023/09/04 07:32:49;;;;;;;7.25;5.90;;;;;;;;;;5080283;28;20045;-74
2023/09/04 07:35:34;;;;;;;7.60;6.30;;;;;;;;;;5074024;28;20049;-74
2023/09/04 07:38:20;;;;;;;5.93;5.05;;;;;;;;;;5080898;28;20040;-74
2023/09/04 07:41:05;;;;;;;8.25;4.82;;;;;;;;;;5074565;28;20045;-74
2023/09/04 07:43:50;;;;;;;8.63;6.13;;;;;;;;;;5081052;28;20041;-74
2023/09/04 07:46:35;;;;;;;6.00;5.40;;;;;;;;;;5074211;28;20040;-74
2023/09/04 07:49:21;;;;;;;9.40;6.38;;;;;;;;;;5081039;28;20044;-74
2023/09/04 07:52:07;;;;;;;7.57;5.20;;;;;;;;;;5073913;28;20040;-76
2023/09/04 07:54:52;;;;;;;6.40;4.90;;;;;;;;;;5073901;28;20048;-75
2023/09/04 07:57:38;;;;;;;6.28;4.80;;;;;;;;;;5074127;28;20045;-74
2023/09/04 08:00:23;;;;;;;9.65;5.10;;;;;;;;;;5073527;28;20393;-76
2023/09/04 08:03:09;;;;;;;4.72;4.07;;;;;;;;;;5073178;28;20045;-76
2023/09/04 08:05:55;;;;;;;7.85;4.65;;;;;;;;;;5080013;28;20032;-75
2023/09/04 08:08:40;;;;;;;5.05;4.10;;;;;;;;;;5073585;28;20041;-74
2023/09/04 08:11:26;;;;;;;9.05;4.70;;;;;;;;;;5080198;28;20053;-76
2023/09/04 08:14:11;;;;;;;5.65;4.65;;;;;;;;;;5073815;28;20048;-75
2023/09/04 08:16:57;;;;;;;5.95;4.63;;;;;;;;;;5073408;28;20049;-75
2023/09/04 08:19:42;;;;;;;4.80;4.30;;;;;;;;;;5080603;28;20477;-75
2023/09/04 08:22:28;;;;;;;4.75;4.18;;;;;;;;;;5080260;28;20040;-75
2023/09/04 08:25:14;;;;;;;10.80;5.45;;;;;;;;;;5079873;28;20040;-75
2023/09/04 08:27:59;;;;;;;5.03;4.40;;;;;;;;;;5079836;28;20478;-73
2023/09/04 08:30:45;;;;;;;7.22;5.97;;;;;;;;;;5073114;28;20474;-74
2023/09/04 08:33:31;;;;;;;7.72;6.30;;;;;;;;;;5072986;28;20048;-74
2023/09/04 08:36:16;;;;;;;7.72;6.93;;;;;;;;;;5080281;28;20044;-74
2023/09/04 08:39:02;;;;;;;6.72;5.35;;;;;;;;;;5073161;28;20045;-75
2023/09/04 08:41:49;;;;;;;8.48;6.93;;;;;;;;;;5075367;28;20044;-76
2023/09/04 08:44:36;;;;;;;7.78;5.45;;;;;;;;;;5076899;28;20045;-76
2023/09/04 08:47:22;;;;;;;6.68;4.88;;;;;;;;;;5077040;28;20386;-74
2023/09/04 08:50:08;;;;;;;7.82;5.32;;;;;;;;;;5076646;28;20036;-76
2023/09/04 08:52:54;;;;;;;7.32;5.13;;;;;;;;;;5076467;28;20049;-77
2023/09/04 08:55:39;;;;;;;6.78;5.60;;;;;;;;;;5083125;28;20079;-76
2023/09/04 08:58:25;;;;;;;6.00;4.78;;;;;;;;;;5076574;28;20041;-76
2023/09/04 09:01:15;;;;;;;9.02;4.82;;;;;;;;;;5076071;28;20048;-75
2023/09/04 09:04:02;;;;;;;5.53;4.95;;;;;;;;;;5076046;28;20037;-76
2023/09/04 09:06:50;;;;;;;5.88;4.03;;;;;;;;;;5076296;28;20044;-75
2023/09/04 09:09:39;;;;;;;6.93;4.57;;;;;;;;;;5061252;28;20422;-76
2023/09/04 09:12:24;;;;;;;7.35;5.40;;;;;;;;;;5076182;28;20048;-75
2023/09/04 09:15:10;;;;;;;8.85;4.45;;;;;;;;;;5076009;28;20048;-77
2023/09/04 09:17:57;;;;;;;6.32;4.75;;;;;;;;;;5075744;28;20040;-75
2023/09/04 09:20:43;;;;;;;4.75;4.18;;;;;;;;;;5082941;28;20398;-74
2023/09/04 09:23:30;;;;;;;6.72;4.82;;;;;;;;;;5075686;28;20143;-75
2023/09/04 09:26:16;;;;;;;6.10;4.50;;;;;;;;;;5076131;28;20040;-74
2023/09/04 09:29:06;;;;;;;4.68;4.28;;;;;;;;;;5082942;28;20036;-76
2023/09/04 09:31:52;;;;;;;6.15;4.40;;;;;;;;;;5075596;28;20389;-75
2023/09/04 09:34:39;;;;;;;9.07;4.93;;;;;;;;;;5075829;28;20048;-75
2023/09/04 09:37:26;;;;;;;4.82;4.30;;;;;;;;;;5082260;28;20052;-75
2023/09/04 09:40:14;;;;;;;6.45;4.90;;;;;;;;;;5075662;28;20041;-76
2023/09/04 09:43:00;;;;;;;5.40;4.40;;;;;;;;;;5081973;28;20048;-76
2023/09/04 09:45:49;;;;;;;4.13;3.72;;;;;;;;;;5074932;28;20037;-75
2023/09/04 09:48:36;;;;;;;6.38;4.50;;;;;;;;;;5082656;28;20048;-76
2023/09/04 09:51:23;;;;;;;5.38;4.30;;;;;;;;;;5082144;28;20044;-76
2023/09/04 09:54:10;;;;;;;6.40;4.40;;;;;;;;;;5075003;28;20044;-76
2023/09/04 09:56:55;;;;;;;4.97;4.47;;;;;;;;;;5075414;28;20044;-76
2023/09/04 09:59:45;;;;;;;7.28;4.53;;;;;;;;;;5075180;28;20037;-75
2023/09/04 10:02:31;;;;;;;6.70;4.30;;;;;;;;;;5075113;28;20045;-74
2023/09/04 10:05:19;;;;;;;5.45;4.40;;;;;;;;;;5074819;28;20037;-77
2023/09/04 10:08:06;;;;;;;4.80;3.15;;;;;;;;;;5074696;28;20048;-75
2023/09/04 10:10:53;;;;;;;4.88;4.20;;;;;;;;;;5075216;28;20037;-77
2023/09/04 10:13:54;;;;;;;4.45;3.60;;;;;;;;;;5074469;28;20048;-76
2023/09/04 10:17:08;;;;;;;5.70;4.57;;;;;;;;;;5075147;28;20048;-75
2023/09/04 10:19:55;;;;;;;4.32;3.40;;;;;;;;;;5081515;28;20048;-77
2023/09/04 10:22:50;;;;;;;5.25;4.05;;;;;;;;;;5074825;28;20040;-77
2023/09/04 10:25:50;;;;;;;5.18;3.88;;;;;;;;;;5081913;28;20044;-77
2023/09/04 10:28:50;;;;;;;7.05;4.28;;;;;;;;;;5074522;28;20048;-76
2023/09/04 10:31:37;;;;;;;3.95;3.17;;;;;;;;;;5074772;28;20036;-77
2023/09/04 10:34:22;;;;;;;4.75;3.63;;;;;;;;;;5074359;28;20048;-77
2023/09/04 10:37:10;;;;;;;8.02;4.25;;;;;;;;;;5081222;28;20048;-77
2023/09/04 10:39:57;;;;;;;5.63;4.35;;;;;;;;;;5074682;28;20044;-75
2023/09/04 10:42:43;;;;;;;5.03;4.10;;;;;;;;;;5073928;28;20040;-75
2023/09/04 10:45:30;;;;;;;11.40;4.22;;;;;;;;;;5074477;28;20041;-75
2023/09/04 10:48:15;;;;;;;5.70;3.30;;;;;;;;;;5073915;28;20044;-77
2023/09/04 10:51:29;;;;;;;7.75;3.92;;;;;;;;;;5080774;28;20048;-78
2023/09/04 10:54:17;;;;;;;4.70;3.78;;;;;;;;;;5073954;28;20056;-77
2023/09/04 10:57:06;;;;;;;6.10;4.00;;;;;;;;;;5073616;28;20048;-77
2023/09/04 10:59:55;;;;;;;4.70;3.88;;;;;;;;;;5080943;28;20478;-76
2023/09/04 11:02:41;;;;;;;6.93;3.50;;;;;;;;;;5074031;28;20044;-77
2023/09/04 11:05:27;;;;;;;4.85;3.10;;;;;;;;;;5064379;28;20045;-76
2023/09/04 11:08:32;;;;;;;7.97;3.20;;;;;;;;;;5059360;28;20048;-76
2023/09/04 11:11:25;;;;;;;5.40;3.88;;;;;;;;;;5073671;28;20040;-76
2023/09/04 11:14:11;;;;;;;6.05;3.55;;;;;;;;;;5059160;28;20048;-77
2023/09/04 11:17:02;;;;;;;4.10;3.53;;;;;;;;;;5073801;28;20041;-76
2023/09/04 11:19:52;;;;;;;3.42;3.00;;;;;;;;;;5074236;28;20040;-76
2023/09/04 11:22:37;;;;;;;4.50;3.47;;;;;;;;;;5073105;28;20033;-75
2023/09/04 11:25:23;;;;;;;4.57;3.50;;;;;;;;;;5080334;28;20037;-75
2023/09/04 11:28:09;;;;;;;6.32;3.53;;;;;;;;;;5073637;28;20482;-76
2023/09/04 11:30:59;;;;;;;5.95;3.95;;;;;;;;;;5073523;28;20052;-75
2023/09/04 11:33:48;;;;;;;5.22;3.88;;;;;;;;;;5072697;28;20041;-76
2023/09/04 11:36:37;;;;;;;6.03;4.00;;;;;;;;;;5073560;28;20045;-73
2023/09/04 11:39:23;;;;;;;11.15;3.88;;;;;;;;;;5073540;28;20040;-76
2023/09/04 11:42:09;;;;;;;5.72;3.67;;;;;;;;;;5080408;28;20041;-74
2023/09/04 11:44:55;;;;;;;5.00;3.63;;;;;;;;;;5079876;28;20048;-75
2023/09/04 11:47:40;;;;;;;6.47;4.55;;;;;;;;;;5073310;28;20053;-73
2023/09/04 11:50:26;;;;;;;7.47;5.05;;;;;;;;;;5073249;28;20036;-74
2023/09/04 11:53:12;;;;;;;7.82;5.30;;;;;;;;;;5065382;28;20033;-75
2023/09/04 11:55:57;;;;;;;8.50;5.10;;;;;;;;;;5079513;28;20041;-76
2023/09/04 11:58:43;;;;;;;4.95;3.78;;;;;;;;;;5079779;28;20048;-76
2023/09/04 12:01:29;;;;;;;5.00;3.90;;;;;;;;;;5073855;28;20478;-75
2023/09/04 12:04:14;;;;;;;4.82;3.85;;;;;;;;;;5072407;28;20481;-75
2023/09/04 12:07:04;;;;;;;4.10;3.55;;;;;;;;;;5073231;28;20037;-75
2023/09/04 12:09:50;;;;;;;8.63;3.92;;;;;;;;;;5073186;28;20048;-75
2023/09/04 12:12:36;;;;;;;6.90;3.55;;;;;;;;;;5072700;28;20036;-76
2023/09/04 12:15:35;;;;;;;4.18;3.60;;;;;;;;;;5079061;28;20044;-76
2023/09/04 12:18:21;;;;;;;18.92;8.73;;;;;;;;;;5068722;28;20077;-75
2023/09/04 12:21:11;;;;;;;31.02;12.10;;;;;;;;;;5075950;28;20477;-75
2023/09/04 12:23:58;;;;;;;39.92;13.10;;;;;;;;;;5077172;28;20393;-74
2023/09/04 12:26:47;;;;;;;22.80;9.05;;;;;;;;;;5083783;28;20474;-75
2023/09/04 12:29:34;;;;;;;69.05;24.65;;;;;;;;;;5077222;28;20044;-76
2023/09/04 12:32:23;;;;;;;73.18;30.30;;;;;;;;;;5084097;28;20481;-75
2023/09/04 12:35:09;;;;;;;62.58;25.65;;;;;;;;;;5077449;28;20032;-75
2023/09/04 12:37:55;;;;;;;28.73;11.18;;;;;;;;;;5076469;28;20048;-75
2023/09/04 12:40:40;;;;;;;12.60;7.40;;;;;;;;;;5076600;28;20045;-75
2023/09/04 12:43:26;;;;;;;6.25;4.03;;;;;;;;;;5077032;28;20391;-74
2023/09/04 12:46:11;;;;;;;10.38;5.80;;;;;;;;;;5076363;28;20041;-75
2023/09/04 12:48:57;;;;;;;7.85;4.53;;;;;;;;;;5075928;28;20045;-76
2023/09/04 12:51:43;;;;;;;6.13;4.15;;;;;;;;;;5076523;28;20044;-76
2023/09/04 12:54:28;;;;;;;10.02;4.25;;;;;;;;;;5076461;28;20041;-75
2023/09/04 12:57:14;;;;;;;5.05;4.15;;;;;;;;;;5083478;28;20478;-76
2023/09/04 12:59:59;;;;;;;6.35;4.60;;;;;;;;;;5076175;28;20044;-75
2023/09/04 13:02:45;;;;;;;8.50;4.40;;;;;;;;;;5083394;28;20045;-75
2023/09/04 13:05:32;;;;;;;10.70;5.65;;;;;;;;;;5082721;28;20044;-74
2023/09/04 13:08:17;;;;;;;10.05;5.57;;;;;;;;;;5082712;28;20041;-75
2023/09/04 13:11:03;;;;;;;9.48;6.35;;;;;;;;;;5082723;28;20044;-76
2023/09/04 13:13:48;;;;;;;7.93;5.60;;;;;;;;;;5077816;28;20045;-76
2023/09/04 13:16:34;;;;;;;8.32;4.38;;;;;;;;;;5075840;28;20048;-76
2023/09/04 13:19:19;;;;;;;8.48;4.80;;;;;;;;;;5076084;28;20036;-77
2023/09/04 13:22:05;;;;;;;9.25;5.88;;;;;;;;;;5075785;28;20401;-76
2023/09/04 13:24:50;;;;;;;11.02;5.95;;;;;;;;;;5082914;28;20449;-76
2023/09/04 13:27:37;;;;;;;8.45;6.32;;;;;;;;;;5081776;28;20048;-76
2023/09/04 13:30:23;;;;;;;9.30;6.70;;;;;;;;;;5075367;28;20397;-77
2023/09/04 13:33:08;;;;;;;8.90;6.63;;;;;;;;;;5075971;28;20037;-76
2023/09/04 13:35:54;;;;;;;7.97;5.85;;;;;;;;;;5075721;28;20053;-76
2023/09/04 13:38:39;;;;;;;8.60;6.28;;;;;;;;;;5075676;28;20057;-76
2023/09/04 13:41:25;;;;;;;10.90;5.80;;;;;;;;;;5075722;28;20048;-75
2023/09/04 13:44:11;;;;;;;7.28;5.65;;;;;;;;;;5076014;28;20044;-76
2023/09/04 13:46:56;;;;;;;6.05;4.95;;;;;;;;;;5075090;28;20044;-75
2023/09/04 13:49:44;;;;;;;6.75;5.70;;;;;;;;;;5075414;28;20048;-76
2023/09/04 13:52:29;;;;;;;10.27;6.43;;;;;;;;;;5074752;28;20040;-74
2023/09/04 13:55:15;;;;;;;9.07;5.10;;;;;;;;;;5075110;28;20052;-77
2023/09/04 13:58:01;;;;;;;6.65;4.68;;;;;;;;;;5074304;28;20477;-76
2023/09/04 14:00:46;;;;;;;5.10;4.60;;;;;;;;;;5074771;28;20429;-75
2023/09/04 14:03:32;;;;;;;10.05;5.60;;;;;;;;;;5080202;28;20049;-76
2023/09/04 14:06:17;;;;;;;8.30;4.25;;;;;;;;;;5073862;28;20048;-76
2023/09/04 14:09:03;;;;;;;6.20;4.68;;;;;;;;;;5074529;28;20351;-75
2023/09/04 14:11:49;;;;;;;5.47;4.13;;;;;;;;;;5075073;28;20048;-76
2023/09/04 14:14:34;;;;;;;7.03;4.13;;;;;;;;;;5060381;28;20513;-76
2023/09/04 14:17:20;;;;;;;6.15;3.83;;;;;;;;;;5074931;28;20394;-76
2023/09/04 14:20:06;;;;;;;6.07;4.00;;;;;;;;;;5075140;28;20048;-77
2023/09/04 14:22:51;;;;;;;7.82;3.95;;;;;;;;;;5072659;28;20060;-76
2023/09/04 14:25:37;;;;;;;8.25;3.83;;;;;;;;;;5073363;28;20052;-77
2023/09/04 14:28:22;;;;;;;4.63;3.65;;;;;;;;;;5067499;28;20044;-77
2023/09/04 14:31:14;;;;;;;3.83;3.20;;;;;;;;;;5081334;28;20037;-76
2023/09/04 14:34:01;;;;;;;4.97;3.60;;;;;;;;;;5074746;28;20068;-75
2023/09/04 14:36:47;;;;;;;7.10;4.30;;;;;;;;;;5071540;28;20052;-73
2023/09/04 14:39:33;;;;;;;7.15;5.25;;;;;;;;;;5070240;28;20053;-73
2023/09/04 14:42:18;;;;;;;4.82;4.30;;;;;;;;;;5077069;28;20044;-74
2023/09/04 14:45:04;;;;;;;6.03;4.22;;;;;;;;;;5070370;28;20060;-75
2023/09/04 14:47:49;;;;;;;5.80;3.58;;;;;;;;;;5070041;28;20044;-74
2023/09/04 14:50:40;;;;;;;4.20;3.22;;;;;;;;;;5070231;28;20494;-75
2023/09/04 14:53:26;;;;;;;7.05;3.58;;;;;;;;;;5070052;28;20044;-74
2023/09/04 14:56:11;;;;;;;4.95;3.78;;;;;;;;;;5072174;28;20049;-73
2023/09/04 14:58:58;;;;;;;7.43;4.28;;;;;;;;;;5070685;28;20036;-74
2023/09/04 15:01:43;;;;;;;5.35;3.92;;;;;;;;;;5070210;28;20041;-74
2023/09/04 15:04:29;;;;;;;8.13;3.45;;;;;;;;;;5070265;28;20048;-74
2023/09/04 15:07:14;;;;;;;5.75;3.50;;;;;;;;;;5072299;28;20057;-73
2023/09/04 15:10:00;;;;;;;5.10;2.92;;;;;;;;;;5072817;28;20048;-73
2023/09/04 15:12:45;;;;;;;8.50;3.50;;;;;;;;;;5062948;28;20052;-73
2023/09/04 15:15:30;;;;;;;6.13;3.90;;;;;;;;;;5073979;28;20045;-73
2023/09/04 15:18:17;;;;;;;4.82;3.50;;;;;;;;;;5065450;28;20486;-74
2023/09/04 15:21:05;;;;;;;6.55;3.15;;;;;;;;;;5054893;28;20477;-73
2023/09/04 15:23:51;;;;;;;4.18;3.22;;;;;;;;;;5070330;28;20044;-73
2023/09/04 15:26:54;;;;;;;6.50;3.60;;;;;;;;;;5069314;28;20048;-74
2023/09/04 15:29:40;;;;;;;4.93;4.13;;;;;;;;;;5070740;28;20409;-74
2023/09/04 15:32:26;;;;;;;7.13;5.07;;;;;;;;;;5070520;28;20048;-72
2023/09/04 15:35:11;;;;;;;6.03;4.32;;;;;;;;;;5076707;28;20393;-74
2023/09/04 15:37:57;;;;;;;5.55;4.07;;;;;;;;;;5076110;28;20044;-74
2023/09/04 15:40:42;;;;;;;4.38;3.97;;;;;;;;;;5060605;28;20056;-73
2023/09/04 15:43:27;;;;;;;5.22;4.63;;;;;;;;;;5069849;28;20044;-73
2023/09/04 15:46:12;;;;;;;12.70;4.20;;;;;;;;;;5067669;28;20044;-73
2023/09/04 15:48:58;;;;;;;6.65;4.30;;;;;;;;;;5067621;28;20056;-73
2023/09/04 15:51:43;;;;;;;8.15;4.32;;;;;;;;;;5068573;28;20048;-73
2023/09/04 15:54:31;;;;;;;11.73;4.57;;;;;;;;;;5068866;28;20437;-73
2023/09/04 15:57:17;;;;;;;7.20;4.80;;;;;;;;;;5069552;28;20052;-73
2023/09/04 16:00:03;;;;;;;7.82;4.50;;;;;;;;;;5068619;28;20044;-73
2023/09/04 16:02:50;;;;;;;8.65;4.18;;;;;;;;;;5075888;28;20048;-73
2023/09/04 16:05:35;;;;;;;9.55;5.13;;;;;;;;;;5069839;28;20052;-73
2023/09/04 16:08:21;;;;;;;6.78;3.90;;;;;;;;;;5069616;28;20049;-73
2023/09/04 16:11:06;;;;;;;5.93;4.53;;;;;;;;;;5069892;28;20048;-74
2023/09/04 16:13:52;;;;;;;7.07;4.82;;;;;;;;;;5069226;28;20052;-75
2023/09/04 16:16:38;;;;;;;6.45;4.30;;;;;;;;;;5069359;28;20056;-73
2023/09/04 16:19:28;;;;;;;7.75;4.30;;;;;;;;;;5069746;28;20040;-74
2023/09/04 16:22:13;;;;;;;8.50;4.93;;;;;;;;;;5076321;28;20036;-73
2023/09/04 16:24:58;;;;;;;6.03;5.07;;;;;;;;;;5054313;28;20401;-73
2023/09/04 16:27:43;;;;;;;7.43;5.20;;;;;;;;;;5069466;28;20041;-72
2023/09/04 16:30:29;;;;;;;11.63;5.68;;;;;;;;;;5070265;28;20052;-74
2023/09/04 16:33:14;;;;;;;9.55;6.75;;;;;;;;;;5054395;28;20044;-74